createdAt,value
2022-09-23T00:00:48.275Z,100.00
2022-09-23T00:03:16.114Z,100.00
2022-09-23T00:05:42.945Z,100.00
2022-09-23T00:08:12.170Z,100.00
2022-09-23T00:10:40.001Z,100.00
2022-09-23T00:13:06.952Z,100.00
2022-09-23T00:15:38.851Z,100.00
2022-09-23T00:18:05.512Z,100.00
2022-09-23T00:20:36.341Z,100.00
2022-09-23T00:23:03.253Z,100.00
2022-09-23T00:25:29.832Z,100.00
2022-09-23T00:27:56.866Z,100.00
2022-09-23T00:30:23.639Z,100.00
2022-09-23T00:32:50.034Z,100.00
2022-09-23T00:35:16.609Z,100.00
2022-09-23T00:37:42.968Z,100.00
2022-09-23T00:40:10.560Z,100.00
2022-09-23T00:42:36.917Z,100.00
2022-09-23T00:45:04.301Z,100.00
2022-09-23T00:47:52.198Z,100.00
2022-09-23T00:50:25.699Z,100.00
2022-09-23T00:52:56.719Z,100.00
2022-09-23T00:55:28.511Z,100.00
2022-09-23T00:57:58.053Z,100.00
2022-09-23T01:00:24.761Z,100.00
2022-09-23T01:02:51.439Z,100.00
2022-09-23T01:05:18.999Z,100.00
2022-09-23T01:07:46.122Z,100.00
2022-09-23T01:10:16.220Z,100.00
2022-09-23T01:13:06.993Z,100.00
2022-09-23T01:15:44.494Z,100.00
2022-09-23T01:18:47.748Z,100.00
2022-09-23T01:21:52.540Z,100.00
2022-09-23T01:24:57.731Z,100.00
2022-09-23T01:27:40.689Z,100.00
2022-09-23T01:30:16.609Z,100.00
2022-09-23T01:33:04.562Z,100.00
2022-09-23T01:36:04.488Z,100.00
2022-09-23T01:38:41.148Z,100.00
2022-09-23T01:41:25.478Z,100.00
2022-09-23T01:44:01.119Z,100.00
2022-09-23T01:46:32.692Z,100.00
2022-09-23T01:49:22.901Z,100.00
2022-09-23T01:52:10.004Z,100.00
2022-09-23T01:54:42.197Z,100.00
2022-09-23T01:57:16.127Z,100.00
2022-09-23T01:59:51.936Z,100.00
2022-09-23T02:02:29.468Z,100.00
2022-09-23T02:05:18.320Z,100.00
2022-09-23T02:07:51.593Z,100.00
2022-09-23T02:10:33.108Z,100.00
2022-09-23T02:13:07.292Z,100.00
2022-09-23T02:15:44.825Z,100.00
2022-09-23T02:18:29.822Z,100.00
2022-09-23T02:21:00.381Z,100.00
2022-09-23T02:23:45.519Z,100.00
2022-09-23T02:26:19.305Z,100.00
2022-09-23T02:28:57.101Z,100.00
2022-09-23T02:31:35.686Z,100.00
2022-09-23T02:34:08.475Z,100.00
2022-09-23T02:36:44.809Z,100.00
2022-09-23T02:39:13.690Z,100.00
2022-09-23T02:41:55.695Z,100.00
2022-09-23T02:44:23.963Z,100.00
2022-09-23T02:46:53.094Z,100.00
2022-09-23T02:49:30.843Z,100.00
2022-09-23T02:52:03.428Z,100.00
2022-09-23T02:54:30.096Z,100.00
2022-09-23T02:56:57.516Z,100.00
2022-09-23T02:59:24.187Z,100.00
2022-09-23T03:02:14.942Z,100.00
2022-09-23T03:05:31.361Z,100.00
2022-09-23T03:08:28.256Z,100.00
2022-09-23T03:11:04.214Z,100.00
2022-09-23T03:13:43.084Z,100.00
2022-09-23T03:16:36.933Z,100.00
2022-09-23T03:19:29.003Z,100.00
2022-09-23T03:22:19.120Z,100.00
2022-09-23T03:24:50.666Z,100.00
2022-09-23T03:27:25.721Z,100.00
2022-09-23T03:29:54.124Z,100.00
2022-09-23T03:32:23.580Z,100.00
2022-09-23T03:34:53.468Z,100.00
2022-09-23T03:37:55.244Z,100.00
2022-09-23T03:40:31.905Z,100.00
2022-09-23T03:43:01.259Z,100.00
2022-09-23T03:45:32.516Z,100.00
2022-09-23T03:47:59.064Z,100.00
2022-09-23T03:50:25.670Z,100.00
2022-09-23T03:52:52.085Z,100.00
2022-09-23T03:55:19.207Z,100.00
2022-09-23T03:57:46.302Z,100.00
2022-09-23T04:00:14.232Z,100.00
2022-09-23T04:02:40.944Z,100.00
2022-09-23T04:05:08.856Z,100.00
2022-09-23T04:07:35.148Z,100.00
2022-09-23T04:10:01.461Z,100.00
2022-09-23T04:12:27.855Z,100.00
2022-09-23T04:14:54.171Z,100.00
2022-09-23T04:17:20.521Z,100.00
2022-09-23T04:19:46.886Z,100.00
2022-09-23T04:22:13.349Z,100.00
2022-09-23T04:24:39.684Z,100.00
2022-09-23T04:27:06.113Z,100.00
2022-09-23T04:29:32.622Z,100.00
2022-09-23T04:31:59.056Z,100.00
2022-09-23T04:34:25.504Z,100.00
2022-09-23T04:36:51.960Z,100.00
2022-09-23T04:39:19.165Z,100.00
2022-09-23T04:41:45.953Z,100.00
2022-09-23T04:44:13.598Z,100.00
2022-09-23T04:46:41.630Z,100.00
2022-09-23T04:49:08.499Z,100.00
2022-09-23T04:51:35.617Z,100.00
2022-09-23T04:54:02.098Z,100.00
2022-09-23T04:56:33.614Z,100.00
2022-09-23T04:59:01.629Z,100.00
2022-09-23T05:01:30.323Z,100.00
2022-09-23T05:04:02.295Z,100.00
2022-09-23T05:06:31.285Z,100.00
2022-09-23T05:08:59.063Z,100.00
2022-09-23T05:11:26.386Z,100.00
2022-09-23T05:13:54.342Z,100.00
2022-09-23T05:16:23.116Z,100.00
2022-09-23T05:18:50.561Z,100.00
2022-09-23T05:21:22.957Z,100.00
2022-09-23T05:23:54.900Z,100.00
2022-09-23T05:26:23.299Z,100.00
2022-09-23T05:28:49.665Z,100.00
2022-09-23T05:31:20.466Z,100.00
2022-09-23T05:33:52.796Z,100.00
2022-09-23T05:36:21.424Z,100.00
2022-09-23T05:38:49.773Z,100.00
2022-09-23T05:41:17.909Z,100.00
2022-09-23T05:43:44.605Z,100.00
2022-09-23T05:46:14.173Z,100.00
2022-09-23T05:48:42.570Z,100.00
2022-09-23T05:51:13.003Z,100.00
2022-09-23T05:53:41.541Z,100.00
2022-09-23T05:56:08.195Z,100.00
2022-09-23T05:58:34.618Z,100.00
2022-09-23T06:01:01.018Z,100.00
2022-09-23T06:03:27.506Z,100.00
2022-09-23T06:05:55.383Z,100.00
2022-09-23T06:08:23.274Z,100.00
2022-09-23T06:10:54.423Z,100.00
2022-09-23T06:13:21.131Z,100.00
2022-09-23T06:15:47.534Z,100.00
2022-09-23T06:18:13.901Z,100.00
2022-09-23T06:20:40.309Z,100.00
2022-09-23T06:23:10.541Z,100.00
2022-09-23T06:25:41.071Z,100.00
2022-09-23T06:28:11.428Z,100.00
2022-09-23T06:30:39.548Z,100.00
2022-09-23T06:33:05.933Z,100.00
2022-09-23T06:35:35.220Z,100.00
2022-09-23T06:38:04.968Z,100.00
2022-09-23T06:40:31.792Z,100.00
2022-09-23T06:43:00.055Z,100.00
2022-09-23T06:45:27.552Z,100.00
2022-09-23T06:47:58.253Z,100.00
2022-09-23T06:50:26.327Z,100.00
2022-09-23T06:52:55.950Z,100.00
2022-09-23T06:55:27.964Z,100.00
2022-09-23T06:57:57.845Z,100.00
2022-09-23T07:00:25.246Z,100.00
2022-09-23T07:02:52.017Z,100.00
2022-09-23T07:05:18.507Z,100.00
2022-09-23T07:07:45.023Z,100.00
2022-09-23T07:10:11.912Z,100.00
2022-09-23T07:12:38.631Z,100.00
2022-09-23T07:15:05.666Z,100.00
2022-09-23T07:17:31.996Z,100.00
2022-09-23T07:19:58.460Z,100.00
2022-09-23T07:22:26.335Z,100.00
2022-09-23T07:24:56.757Z,100.00
2022-09-23T07:27:25.616Z,100.00
2022-09-23T07:29:52.464Z,98.97
2022-09-23T07:32:20.431Z,98.24
2022-09-23T07:34:47.193Z,98.32
2022-09-23T07:37:17.387Z,97.99
2022-09-23T07:39:45.124Z,97.90
2022-09-23T07:42:14.157Z,98.08
2022-09-23T07:44:46.785Z,97.64
2022-09-23T07:47:14.037Z,97.44
2022-09-23T07:49:40.352Z,96.14
2022-09-23T07:52:06.828Z,94.71
2022-09-23T07:54:33.174Z,95.99
2022-09-23T07:57:00.860Z,95.75
2022-09-23T07:59:27.325Z,92.89
2022-09-23T08:01:55.071Z,94.27
2022-09-23T08:04:28.097Z,94.31
2022-09-23T08:07:00.127Z,92.96
2022-09-23T08:09:33.187Z,93.40
2022-09-23T08:12:00.541Z,92.88
2022-09-23T08:14:27.423Z,92.67
2022-09-23T08:16:54.085Z,91.80
2022-09-23T08:19:20.493Z,91.33
2022-09-23T08:21:47.453Z,90.93
2022-09-23T08:24:17.071Z,89.95
2022-09-23T08:26:44.794Z,88.97
2022-09-23T08:29:18.911Z,86.88
2022-09-23T08:31:45.716Z,87.14
2022-09-23T08:34:12.218Z,84.26
2022-09-23T08:36:38.759Z,85.91
2022-09-23T08:39:05.972Z,84.37
2022-09-23T08:41:58.800Z,82.35
2022-09-23T08:44:43.292Z,81.71
2022-09-23T08:47:31.439Z,78.33
2022-09-23T08:50:21.884Z,78.65
2022-09-23T08:52:53.645Z,79.56
2022-09-23T08:55:28.469Z,78.81
2022-09-23T08:58:26.162Z,77.70
2022-09-23T09:01:10.695Z,77.58
2022-09-23T09:03:45.192Z,79.01
2022-09-23T09:06:45.548Z,78.27
2022-09-23T09:09:23.595Z,79.23
2022-09-23T09:11:55.434Z,78.54
2022-09-23T09:14:33.746Z,79.02
2022-09-23T09:17:21.029Z,80.69
2022-09-23T09:20:07.761Z,79.36
2022-09-23T09:23:20.105Z,78.46
2022-09-23T09:25:50.694Z,78.85
2022-09-23T09:28:30.875Z,79.61
2022-09-23T09:31:01.217Z,77.20
2022-09-23T09:33:44.653Z,76.62
2022-09-23T09:36:23.562Z,75.71
2022-09-23T09:38:51.073Z,76.14
2022-09-23T09:41:21.195Z,74.72
2022-09-23T09:43:57.561Z,73.70
2022-09-23T09:46:44.959Z,73.54
2022-09-23T09:49:40.533Z,73.48
2022-09-23T09:52:22.557Z,73.81
2022-09-23T09:54:50.914Z,72.39
2022-09-23T09:57:36.720Z,71.70
2022-09-23T10:00:21.474Z,71.32
2022-09-23T10:02:53.542Z,69.93
2022-09-23T10:05:30.241Z,68.39
2022-09-23T10:07:56.638Z,68.95
2022-09-23T10:10:33.702Z,68.39
2022-09-23T10:13:14.978Z,69.08
2022-09-23T10:15:45.220Z,68.06
2022-09-23T10:18:19.591Z,67.93
2022-09-23T10:20:47.776Z,67.47
2022-09-23T10:23:24.556Z,66.87
2022-09-23T10:26:02.696Z,68.48
2022-09-23T10:28:40.169Z,68.23
2022-09-23T10:31:15.706Z,67.54
2022-09-23T10:34:00.485Z,68.30
2022-09-23T10:36:28.585Z,66.60
2022-09-23T10:39:19.514Z,64.90
2022-09-23T10:42:22.139Z,64.70
2022-09-23T10:45:45.133Z,64.25
2022-09-23T10:48:21.694Z,64.64
2022-09-23T10:50:50.218Z,60.97
2022-09-23T10:53:35.355Z,62.73
2022-09-23T10:56:13.484Z,63.10
2022-09-23T10:59:07.176Z,57.59
2022-09-23T11:02:00.560Z,58.70
2022-09-23T11:04:41.272Z,59.88
2022-09-23T11:07:40.342Z,61.75
2022-09-23T11:11:01.153Z,60.91
2022-09-23T11:13:54.506Z,62.89
2022-09-23T11:16:58.143Z,61.80
2022-09-23T11:19:32.360Z,60.14
2022-09-23T11:22:04.883Z,59.59
2022-09-23T11:24:50.224Z,60.07
2022-09-23T11:27:42.250Z,61.81
2022-09-23T11:30:10.017Z,61.58
2022-09-23T11:32:55.947Z,62.33
2022-09-23T11:35:29.443Z,61.26
2022-09-23T11:38:03.943Z,61.40
2022-09-23T11:40:39.706Z,59.41
2022-09-23T11:43:25.046Z,59.75
2022-09-23T11:46:00.930Z,59.77
2022-09-23T11:48:36.609Z,60.15
2022-09-23T11:51:05.824Z,59.66
2022-09-23T11:53:40.542Z,60.78
2022-09-23T11:56:40.834Z,59.94
2022-09-23T11:59:20.895Z,59.35
2022-09-23T12:02:35.888Z,56.84
2022-09-23T12:05:09.411Z,59.73
2022-09-23T12:07:53.257Z,60.39
2022-09-23T12:10:21.433Z,57.71
2022-09-23T12:12:58.610Z,56.64
2022-09-23T12:15:44.181Z,58.80
2022-09-23T12:18:37.051Z,56.38
2022-09-23T12:21:27.143Z,57.76
2022-09-23T12:24:24.639Z,59.71
2022-09-23T12:26:57.141Z,56.52
2022-09-23T12:29:26.440Z,59.62
2022-09-23T12:31:53.253Z,58.07
2022-09-23T12:34:25.313Z,57.30
2022-09-23T12:36:51.724Z,56.06
2022-09-23T12:39:29.521Z,56.41
2022-09-23T12:42:06.213Z,54.66
2022-09-23T12:44:37.583Z,56.02
2022-09-23T12:47:25.297Z,55.79
2022-09-23T12:49:53.192Z,56.66
2022-09-23T12:52:19.459Z,56.91
2022-09-23T12:54:50.280Z,56.85
2022-09-23T12:57:35.045Z,56.84
2022-09-23T13:00:12.465Z,56.59
2022-09-23T13:02:47.784Z,58.52
2022-09-23T13:05:38.206Z,57.39
2022-09-23T13:08:24.539Z,56.78
2022-09-23T13:11:01.465Z,58.84
2022-09-23T13:13:43.275Z,57.08
2022-09-23T13:16:39.047Z,59.05
2022-09-23T13:19:26.401Z,59.37
2022-09-23T13:22:09.782Z,59.90
2022-09-23T13:25:00.404Z,57.64
2022-09-23T13:27:36.423Z,59.99
2022-09-23T13:30:19.313Z,60.93
2022-09-23T13:32:53.081Z,61.36
2022-09-23T13:35:29.759Z,61.11
2022-09-23T13:37:57.454Z,60.40
2022-09-23T13:40:28.847Z,60.99
2022-09-23T13:43:00.006Z,58.66
2022-09-23T13:45:28.827Z,59.57
2022-09-23T13:48:01.626Z,58.27
2022-09-23T13:50:32.876Z,59.62
2022-09-23T13:53:05.885Z,60.01
2022-09-23T13:55:37.329Z,58.25
2022-09-23T13:58:21.381Z,56.79
2022-09-23T14:00:49.171Z,56.46
2022-09-23T14:03:26.198Z,57.57
2022-09-23T14:05:55.014Z,55.01
2022-09-23T14:08:22.214Z,56.72
2022-09-23T14:10:48.634Z,58.02
2022-09-23T14:13:25.435Z,52.23
2022-09-23T14:15:54.990Z,53.94
2022-09-23T14:18:30.084Z,55.29
2022-09-23T14:20:56.453Z,53.84
2022-09-23T14:23:22.959Z,54.78
2022-09-23T14:25:51.135Z,55.60
2022-09-23T14:28:19.941Z,56.80
2022-09-23T14:30:47.967Z,57.76
2022-09-23T14:33:22.898Z,57.13
2022-09-23T14:35:54.083Z,58.39
2022-09-23T14:38:42.525Z,58.50
2022-09-23T14:41:24.162Z,58.11
2022-09-23T14:43:54.642Z,58.57
2022-09-23T14:46:23.254Z,59.78
2022-09-23T14:49:03.865Z,60.28
2022-09-23T14:51:34.244Z,60.85
2022-09-23T14:54:24.471Z,60.78
2022-09-23T14:56:51.140Z,61.57
2022-09-23T14:59:36.984Z,61.19
2022-09-23T15:02:31.265Z,63.16
2022-09-23T15:05:20.532Z,63.85
2022-09-23T15:07:52.411Z,64.20
2022-09-23T15:10:23.398Z,64.89
2022-09-23T15:12:51.871Z,64.87
2022-09-23T15:15:18.971Z,66.15
2022-09-23T15:17:45.815Z,66.05
2022-09-23T15:20:23.372Z,65.19
2022-09-23T15:22:55.509Z,66.05
2022-09-23T15:25:28.149Z,67.40
2022-09-23T15:28:04.162Z,67.07
2022-09-23T15:30:31.923Z,68.20
2022-09-23T15:32:58.600Z,67.57
2022-09-23T15:35:26.573Z,65.13
2022-09-23T15:37:58.100Z,65.27
2022-09-23T15:40:37.097Z,66.37
2022-09-23T15:43:20.964Z,66.50
2022-09-23T15:45:53.449Z,66.18
2022-09-23T15:48:26.013Z,68.10
2022-09-23T15:50:54.259Z,69.29
2022-09-23T15:53:25.463Z,70.74
2022-09-23T15:55:52.109Z,69.50
2022-09-23T15:58:20.326Z,67.04
2022-09-23T16:00:56.594Z,67.98
2022-09-23T16:03:30.776Z,68.44
2022-09-23T16:06:01.115Z,68.97
2022-09-23T16:08:28.873Z,69.63
2022-09-23T16:10:55.711Z,69.62
2022-09-23T16:13:22.245Z,70.66
2022-09-23T16:15:48.689Z,70.97
2022-09-23T16:18:15.034Z,71.78
2022-09-23T16:20:44.421Z,72.34
2022-09-23T16:23:38.686Z,71.89
2022-09-23T16:26:10.610Z,72.10
2022-09-23T16:28:36.967Z,72.25
2022-09-23T16:31:03.351Z,72.83
2022-09-23T16:33:29.667Z,73.30
2022-09-23T16:35:57.068Z,75.27
2022-09-23T16:38:23.419Z,75.64
2022-09-23T16:40:49.845Z,75.23
2022-09-23T16:43:16.501Z,74.40
2022-09-23T16:45:43.298Z,75.04
2022-09-23T16:48:11.098Z,75.10
2022-09-23T16:50:37.451Z,75.50
2022-09-23T16:53:04.199Z,76.41
2022-09-23T16:55:31.222Z,77.46
2022-09-23T16:57:57.519Z,78.36
2022-09-23T17:00:43.182Z,78.88
2022-09-23T17:03:30.522Z,80.01
2022-09-23T17:05:56.933Z,81.04
2022-09-23T17:08:23.348Z,82.50
2022-09-23T17:10:59.185Z,83.39
2022-09-23T17:13:26.744Z,84.11
2022-09-23T17:15:54.131Z,84.85
2022-09-23T17:18:21.465Z,86.77
2022-09-23T17:21:01.973Z,87.32
2022-09-23T17:23:31.330Z,86.54
2022-09-23T17:26:00.828Z,85.50
2022-09-23T17:28:27.448Z,85.41
2022-09-23T17:30:58.471Z,85.03
2022-09-23T17:33:29.833Z,85.44
2022-09-23T17:35:57.112Z,85.35
2022-09-23T17:38:28.608Z,86.06
2022-09-23T17:40:58.958Z,87.66
2022-09-23T17:43:25.877Z,88.11
2022-09-23T17:45:54.314Z,88.68
2022-09-23T17:48:21.596Z,89.16
2022-09-23T17:50:58.357Z,89.65
2022-09-23T17:53:25.867Z,91.58
2022-09-23T17:56:06.852Z,94.10
2022-09-23T17:58:36.916Z,94.07
2022-09-23T18:01:04.757Z,95.05
2022-09-23T18:03:32.040Z,95.87
2022-09-23T18:06:14.926Z,96.67
2022-09-23T18:08:42.263Z,97.57
2022-09-23T18:11:12.490Z,97.41
2022-09-23T18:13:38.840Z,98.65
2022-09-23T18:16:05.447Z,99.47
2022-09-23T18:18:31.909Z,99.67
2022-09-23T18:21:02.710Z,100.00
2022-09-23T18:23:29.202Z,100.00
2022-09-23T18:25:56.104Z,100.00
2022-09-23T18:28:22.656Z,100.00
2022-09-23T18:30:56.386Z,100.00
2022-09-23T18:33:23.994Z,100.00
2022-09-23T18:35:51.690Z,100.00
2022-09-23T18:38:19.024Z,100.00
2022-09-23T18:40:57.461Z,100.00
2022-09-23T18:43:27.442Z,100.00
2022-09-23T18:45:59.954Z,100.00
2022-09-23T18:48:46.098Z,100.00
2022-09-23T18:51:13.700Z,100.00
2022-09-23T18:53:40.998Z,100.00
2022-09-23T18:56:15.727Z,100.00
2022-09-23T18:58:47.632Z,100.00
2022-09-23T19:01:14.539Z,100.00
2022-09-23T19:03:41.049Z,100.00
2022-09-23T19:06:16.277Z,100.00
2022-09-23T19:08:45.196Z,100.00
2022-09-23T19:11:13.745Z,100.00
2022-09-23T19:13:40.621Z,100.00
2022-09-23T19:16:10.347Z,100.00
2022-09-23T19:18:38.463Z,100.00
2022-09-23T19:21:07.217Z,100.00
2022-09-23T19:23:37.462Z,100.00
2022-09-23T19:26:10.184Z,100.00
2022-09-23T19:28:37.031Z,100.00
2022-09-23T19:31:16.763Z,100.00
2022-09-23T19:33:47.362Z,100.00
2022-09-23T19:36:16.687Z,100.00
2022-09-23T19:38:44.264Z,100.00
2022-09-23T19:41:11.121Z,100.00
2022-09-23T19:43:37.828Z,100.00
2022-09-23T19:46:05.588Z,100.00
2022-09-23T19:48:32.122Z,100.00
2022-09-23T19:50:58.822Z,100.00
2022-09-23T19:53:28.133Z,100.00
2022-09-23T19:55:56.113Z,100.00
2022-09-23T19:58:23.148Z,100.00
2022-09-23T20:00:51.664Z,100.00
2022-09-23T20:03:18.326Z,100.00
2022-09-23T20:05:44.673Z,100.00
2022-09-23T20:08:10.968Z,100.00
2022-09-23T20:10:40.389Z,100.00
2022-09-23T20:13:07.442Z,100.00
2022-09-23T20:15:33.751Z,100.00
2022-09-23T20:18:00.057Z,100.00
2022-09-23T20:20:26.421Z,100.00
2022-09-23T20:22:54.971Z,100.00
2022-09-23T20:25:21.367Z,100.00
2022-09-23T20:27:53.443Z,100.00
2022-09-23T20:30:20.563Z,100.00
2022-09-23T20:32:49.075Z,100.00
2022-09-23T20:35:16.233Z,100.00
2022-09-23T20:37:42.548Z,100.00
2022-09-23T20:40:10.086Z,100.00
2022-09-23T20:42:36.429Z,100.00
2022-09-23T20:45:02.777Z,100.00
2022-09-23T20:47:29.234Z,100.00
2022-09-23T20:49:55.625Z,100.00
2022-09-23T20:52:22.117Z,100.00
2022-09-23T20:54:50.279Z,100.00
2022-09-23T20:57:16.654Z,100.00
2022-09-23T20:59:43.417Z,100.00
2022-09-23T21:02:10.901Z,100.00
2022-09-23T21:04:37.761Z,100.00
2022-09-23T21:07:04.162Z,100.00
2022-09-23T21:09:33.076Z,100.00
2022-09-23T21:11:59.503Z,100.00
2022-09-23T21:14:25.852Z,100.00
2022-09-23T21:16:52.867Z,100.00
2022-09-23T21:19:19.962Z,100.00
2022-09-23T21:21:46.376Z,100.00
2022-09-23T21:24:42.211Z,100.00
2022-09-23T21:26:59.097Z,100.00
2022-09-23T21:29:25.417Z,100.00
2022-09-23T21:31:51.747Z,100.00
2022-09-23T21:34:18.214Z,100.00
2022-09-23T21:36:47.729Z,100.00
2022-09-23T21:39:14.435Z,100.00
2022-09-23T21:41:40.823Z,100.00
2022-09-23T21:44:08.243Z,100.00
2022-09-23T21:46:35.745Z,100.00
2022-09-23T21:49:03.886Z,100.00
2022-09-23T21:51:37.482Z,100.00
2022-09-23T21:54:04.873Z,100.00
2022-09-23T21:56:35.014Z,100.00
2022-09-23T21:59:01.374Z,100.00
2022-09-23T22:01:30.838Z,100.00
2022-09-23T22:04:01.600Z,100.00
2022-09-23T22:06:28.563Z,100.00
2022-09-23T22:09:00.208Z,100.00
2022-09-23T22:11:47.967Z,100.00
2022-09-23T22:14:15.611Z,100.00
2022-09-23T22:16:42.420Z,100.00
2022-09-23T22:19:10.093Z,100.00
2022-09-23T22:21:38.681Z,100.00
2022-09-23T22:24:07.363Z,100.00
2022-09-23T22:26:42.803Z,100.00
2022-09-23T22:29:30.406Z,100.00
2022-09-23T22:32:15.590Z,100.00
2022-09-23T22:34:50.530Z,100.00
2022-09-23T22:37:25.518Z,100.00
2022-09-23T22:39:52.003Z,100.00
2022-09-23T22:42:21.117Z,100.00
2022-09-23T22:44:48.077Z,100.00
2022-09-23T22:47:15.030Z,100.00
2022-09-23T22:49:42.018Z,100.00
2022-09-23T22:52:09.043Z,100.00
2022-09-23T22:54:35.759Z,100.00
2022-09-23T22:57:06.511Z,100.00
2022-09-23T22:59:33.080Z,100.00
2022-09-23T23:02:00.130Z,100.00
2022-09-23T23:04:26.948Z,100.00
2022-09-23T23:06:53.295Z,100.00
2022-09-23T23:09:19.903Z,100.00
2022-09-23T23:11:47.031Z,100.00
2022-09-23T23:14:16.889Z,100.00
2022-09-23T23:16:45.103Z,100.00
2022-09-23T23:19:14.119Z,100.00
2022-09-23T23:21:44.410Z,100.00
2022-09-23T23:24:17.702Z,100.00
2022-09-23T23:26:44.773Z,100.00
2022-09-23T23:29:13.025Z,100.00
2022-09-23T23:31:39.794Z,100.00
2022-09-23T23:34:10.867Z,100.00
2022-09-23T23:36:37.413Z,100.00
2022-09-23T23:39:04.161Z,100.00
2022-09-23T23:41:31.182Z,100.00
2022-09-23T23:43:59.170Z,100.00
2022-09-23T23:46:28.104Z,100.00
2022-09-23T23:48:55.623Z,100.00
2022-09-23T23:51:22.875Z,100.00
2022-09-23T23:53:49.195Z,100.00
2022-09-23T23:56:20.229Z,100.00
2022-09-23T23:58:46.884Z,100.00
